Time;durP1;ratioP1;P1;durP2;ratioP2;P2;SDS_P1;SDS_P2;PMS_P1;PMS_P2;Temp;Humidity;BMP_temperature;BMP_pressure;BME280_temperature;BME280_humidity;BME280_pressure;Samples;Min_cycle;Max_cycle;Signal;HPM_P1;HPM_P2
2022/07/14 00:02:15;;;;;;;3.17;1.35;;;;;;;17.12;50.37;95936.81;5105979;28;20118;-79
2022/07/14 00:04:41;;;;;;;2.20;1.27;;;;;;;17.08;49.95;95941.00;5106515;28;20382;-79
2022/07/14 00:07:06;;;;;;;2.15;1.50;;;;;;;17.01;50.42;95948.22;5087471;28;20028;-79
2022/07/14 00:09:32;;;;;;;2.90;1.40;;;;;;;17.01;49.97;95953.63;5106583;28;20042;-79
2022/07/14 00:11:57;;;;;;;2.22;1.42;;;;;;;17.01;50.32;95950.94;5087996;28;20028;-80
2022/07/14 00:14:23;;;;;;;2.75;1.75;;;;;;;16.99;51.06;95945.72;5106731;28;20069;-79
2022/07/14 00:16:48;;;;;;;2.47;1.40;;;;;;;16.96;50.84;95940.72;5088169;28;20031;-80
2022/07/14 00:19:13;;;;;;;2.78;1.80;;;;;;;16.93;50.54;95946.53;5105944;28;20028;-79
2022/07/14 00:21:39;;;;;;;3.10;1.65;;;;;;;16.90;50.50;95942.38;5088219;28;20038;-80
2022/07/14 00:24:05;;;;;;;4.22;1.40;;;;;;;16.88;50.57;95944.44;5105357;28;20024;-80
2022/07/14 00:26:30;;;;;;;6.97;1.67;;;;;;;16.85;50.18;95939.44;5088261;28;20171;-80
2022/07/14 00:28:55;;;;;;;2.42;1.38;;;;;;;16.82;50.38;95950.69;5105065;28;20536;-80
2022/07/14 00:31:21;;;;;;;3.65;1.50;;;;;;;16.82;50.86;95950.69;5070753;28;20028;-80
2022/07/14 00:33:46;;;;;;;4.53;1.67;;;;;;;16.81;51.84;95949.03;5105285;28;20035;-80
2022/07/14 00:36:12;;;;;;;2.53;1.60;;;;;;;16.68;52.08;95945.22;5105954;28;20509;-79
2022/07/14 00:38:37;;;;;;;2.65;1.42;;;;;;;16.71;52.32;95951.28;5071004;28;20027;-80
2022/07/14 00:41:03;;;;;;;3.35;1.73;;;;;;;16.67;52.31;95951.69;5087480;28;20026;-80
2022/07/14 00:43:29;;;;;;;2.00;1.40;;;;;;;16.63;52.81;95947.72;5106126;28;20084;-80
2022/07/14 00:45:54;;;;;;;3.00;1.60;;;;;;;16.57;52.57;95943.13;5104791;28;20027;-80
2022/07/14 00:48:19;;;;;;;3.08;1.63;;;;;;;16.41;52.88;95952.44;5087842;28;20084;-80
2022/07/14 00:50:45;;;;;;;2.60;1.50;;;;;;;16.38;52.90;95948.22;5086900;28;20023;-80
2022/07/14 00:53:12;;;;;;;3.03;1.52;;;;;;;16.40;52.63;95946.16;5106184;28;20031;-80
2022/07/14 00:55:39;;;;;;;3.30;1.60;;;;;;;16.41;52.98;95950.53;5071106;28;20122;-80
2022/07/14 00:58:04;;;;;;;4.28;1.83;;;;;;;16.40;53.43;95951.59;5105068;28;20055;-79
2022/07/14 01:00:30;;;;;;;5.88;1.65;;;;;;;16.35;53.18;95956.75;5071297;28;20051;-79
2022/07/14 01:02:55;;;;;;;4.47;1.85;;;;;;;16.30;53.17;95956.50;5104674;28;20020;-80
2022/07/14 01:05:21;;;;;;;2.47;1.65;;;;;;;16.24;53.79;95949.19;5087779;28;20374;-79
2022/07/14 01:07:49;;;;;;;4.85;1.60;;;;;;;16.25;53.68;95951.69;5086452;28;20028;-79
2022/07/14 01:10:15;;;;;;;3.35;1.70;;;;;;;16.16;53.53;95950.19;5087164;28;20097;-80
2022/07/14 01:12:49;;;;;;;3.58;1.65;;;;;;;16.14;53.95;95945.00;5105548;28;20027;-79
2022/07/14 01:15:15;;;;;;;3.45;2.00;;;;;;;16.13;53.82;95950.59;5088268;28;20118;-79
2022/07/14 01:17:40;;;;;;;4.20;1.65;;;;;;;16.14;53.59;95949.56;5105896;28;20460;-79
2022/07/14 01:20:06;;;;;;;3.00;1.98;;;;;;;16.15;53.30;95943.13;5104592;28;20023;-79
2022/07/14 01:22:32;;;;;;;2.95;1.80;;;;;;;16.19;53.53;95947.09;5070418;28;20019;-79
2022/07/14 01:24:57;;;;;;;2.97;1.60;;;;;;;16.22;53.93;95946.69;5069993;28;20459;-79
2022/07/14 01:27:23;;;;;;;6.55;2.03;;;;;;;16.23;53.52;95947.53;5112485;28;20104;-79
2022/07/14 01:29:48;;;;;;;3.42;1.90;;;;;;;16.21;52.89;95934.22;5095756;28;20464;-79
2022/07/14 01:32:13;;;;;;;4.00;1.98;;;;;;;16.23;52.84;95936.72;5088034;28;20478;-79
2022/07/14 01:34:39;;;;;;;2.53;1.63;;;;;;;16.18;52.56;95932.75;5106438;28;20486;-79
2022/07/14 01:37:04;;;;;;;2.70;1.70;;;;;;;16.17;52.80;95931.06;5087350;28;20031;-79
2022/07/14 01:39:30;;;;;;;2.70;1.67;;;;;;;16.15;52.55;95927.72;5088291;28;20032;-79
2022/07/14 01:41:55;;;;;;;2.42;1.63;;;;;;;16.18;52.53;95935.47;5071529;28;20051;-79
2022/07/14 01:44:21;;;;;;;5.28;1.80;;;;;;;16.18;52.46;95931.91;5092280;28;20505;-79
2022/07/14 01:46:47;;;;;;;6.38;1.75;;;;;;;16.17;52.44;95928.34;5109420;28;20451;-78
2022/07/14 01:49:12;;;;;;;4.18;1.80;;;;;;;16.12;52.44;95936.22;5075250;28;20028;-79
2022/07/14 01:51:38;;;;;;;2.17;1.33;;;;;;;16.14;52.71;95934.16;5074416;28;20027;-79
2022/07/14 01:54:04;;;;;;;2.33;1.60;;;;;;;16.13;52.36;95934.38;5091958;28;20026;-79
2022/07/14 01:56:30;;;;;;;2.38;1.60;;;;;;;16.06;52.77;95928.91;5058426;28;20032;-79
2022/07/14 01:58:55;;;;;;;3.28;1.60;;;;;;;16.06;52.89;95937.03;5109819;28;20076;-79
2022/07/14 02:01:39;;;;;;;2.05;1.60;;;;;;;16.02;53.58;95936.63;5091615;28;20020;-80
2022/07/14 02:04:04;;;;;;;3.45;1.67;;;;;;;16.01;53.07;95940.34;5093292;28;20023;-79
2022/07/14 02:06:30;;;;;;;2.72;1.90;;;;;;;15.86;53.19;95934.19;5075175;28;20038;-78
2022/07/14 02:08:56;;;;;;;3.50;1.65;;;;;;;15.87;53.04;95936.69;5109132;28;20417;-79
2022/07/14 02:14:06;;;;;;;3.55;2.03;;;;;;;15.89;53.01;95940.03;5109353;28;20160;-78
2022/07/14 02:16:31;;;;;;;3.10;1.92;;;;;;;15.87;53.59;95939.41;5109044;28;20040;-80
2022/07/14 02:18:58;;;;;;;3.75;2.00;;;;;;;15.89;52.84;95934.63;5110276;28;20028;-80
2022/07/14 02:21:24;;;;;;;4.28;2.08;;;;;;;15.85;53.04;95941.44;5073650;28;20049;-81
2022/07/14 02:23:50;;;;;;;2.33;1.90;;;;;;;15.78;53.32;95941.41;5110089;28;20027;-81
2022/07/14 02:26:15;;;;;;;3.65;2.10;;;;;;;15.69;54.40;95932.63;5056796;28;20064;-79
2022/07/14 02:28:41;;;;;;;3.97;1.80;;;;;;;15.57;54.73;95940.44;5110282;28;20024;-80
2022/07/14 02:31:11;;;;;;;2.83;2.13;;;;;;;15.61;54.67;95945.44;5090662;28;20085;-80
2022/07/14 02:33:37;;;;;;;6.50;2.40;;;;;;;15.60;54.68;95943.78;5108989;28;20012;-80
2022/07/14 02:36:03;;;;;;;2.65;2.00;;;;;;;15.57;53.85;95945.03;5073755;28;20023;-80
2022/07/14 02:38:28;;;;;;;2.72;1.80;;;;;;;15.56;53.71;95943.31;5072869;28;20414;-80
2022/07/14 02:40:54;;;;;;;3.10;2.10;;;;;;;15.50;54.32;95947.66;5109427;28;20466;-79
2022/07/14 02:43:19;;;;;;;3.50;2.08;;;;;;;15.51;54.83;95948.50;5107940;28;20023;-79
2022/07/14 02:45:44;;;;;;;5.32;2.17;;;;;;;15.53;55.05;95954.53;5108995;28;20448;-79
2022/07/14 02:48:10;;;;;;;9.20;2.30;;;;;;;15.44;54.43;95951.16;5108381;28;20473;-79
2022/07/14 02:50:36;;;;;;;4.75;2.53;;;;;;;15.41;54.65;95956.94;5073662;28;20584;-79
2022/07/14 02:53:04;;;;;;;4.05;2.30;;;;;;;15.39;54.59;95951.75;5089523;28;20019;-80
2022/07/14 02:55:30;;;;;;;6.07;2.35;;;;;;;15.33;55.03;95950.63;5089833;28;20031;-80
2022/07/14 02:57:55;;;;;;;2.70;1.98;;;;;;;15.31;55.14;95960.78;5056966;28;20455;-79
2022/07/14 03:00:21;;;;;;;4.72;2.20;;;;;;;15.33;55.48;95956.03;5089067;28;20349;-80
2022/07/14 03:02:46;;;;;;;3.53;2.10;;;;;;;15.35;55.80;95953.13;5090733;28;20034;-78
2022/07/14 03:05:12;;;;;;;4.78;2.70;;;;;;;15.22;55.78;95947.63;5089229;28;20031;-79
2022/07/14 03:07:37;;;;;;;6.32;2.28;;;;;;;15.16;56.12;95955.47;5089789;28;20028;-79
2022/07/14 03:10:03;;;;;;;9.18;2.53;;;;;;;15.24;56.08;95961.75;5088978;28;20100;-80
2022/07/14 03:12:29;;;;;;;5.30;2.50;;;;;;;15.28;55.50;95960.38;5108133;28;20072;-80
2022/07/14 03:14:54;;;;;;;11.13;2.92;;;;;;;15.31;55.32;95960.78;5089910;28;20027;-80
2022/07/14 03:17:21;;;;;;;4.40;3.05;;;;;;;15.32;55.42;95967.03;5107787;28;20027;-80
2022/07/14 03:19:47;;;;;;;5.40;2.50;;;;;;;15.25;55.96;95975.06;5090062;28;20016;-80
2022/07/14 03:22:12;;;;;;;6.20;2.40;;;;;;;15.32;55.35;95973.28;5089087;28;20028;-80
2022/07/14 03:24:38;;;;;;;14.20;3.92;;;;;;;15.34;55.77;95978.50;5089825;28;20032;-80
2022/07/14 03:27:03;;;;;;;3.90;2.08;;;;;;;15.31;55.43;95978.91;5107540;28;20020;-79
2022/07/14 03:29:29;;;;;;;6.15;2.50;;;;;;;15.36;55.60;95971.03;5072451;28;20020;-79
2022/07/14 03:31:54;;;;;;;2.95;2.28;;;;;;;15.31;55.46;95978.91;5088673;28;20023;-79
2022/07/14 03:34:20;;;;;;;4.10;2.55;;;;;;;15.22;55.07;95983.56;5107283;28;20032;-79
2022/07/14 03:36:45;;;;;;;2.88;2.30;;;;;;;15.27;55.17;95985.69;5088992;28;20059;-79
2022/07/14 03:39:11;;;;;;;3.20;2.10;;;;;;;15.30;54.79;95982.59;5107261;28;20020;-79
2022/07/14 03:41:36;;;;;;;4.15;2.85;;;;;;;15.35;55.10;95990.97;5089681;28;20038;-79
2022/07/14 03:44:02;;;;;;;8.15;2.50;;;;;;;15.43;55.09;95993.53;5088438;28;20028;-80
2022/07/14 03:46:27;;;;;;;7.32;2.92;;;;;;;15.49;54.93;95991.09;5089707;28;20031;-79
2022/07/14 03:48:52;;;;;;;4.03;2.60;;;;;;;15.44;54.59;95979.00;5071301;28;20100;-80
2022/07/14 03:51:18;;;;;;;2.85;2.30;;;;;;;15.36;54.48;95981.00;5088998;28;20402;-79
2022/07/14 03:53:44;;;;;;;3.55;2.53;;;;;;;15.32;54.92;95980.56;5106596;28;20023;-79
2022/07/14 03:56:09;;;;;;;4.63;2.55;;;;;;;15.31;54.89;95982.41;5106668;28;20031;-79
2022/07/14 03:58:34;;;;;;;5.32;2.60;;;;;;;15.32;54.47;95983.25;5077795;28;20028;-79
2022/07/14 04:01:00;;;;;;;3.47;2.17;;;;;;;15.31;54.47;95987.00;5107579;28;20036;-79
2022/07/14 04:03:25;;;;;;;7.50;2.67;;;;;;;15.18;54.55;95983.16;5109964;28;20517;-79
2022/07/14 04:05:51;;;;;;;5.60;2.88;;;;;;;15.14;54.91;95991.78;5104666;28;20032;-80
2022/07/14 04:08:16;;;;;;;5.53;3.13;;;;;;;15.03;55.14;95991.28;5071809;28;20032;-79
2022/07/14 04:10:42;;;;;;;5.15;2.60;;;;;;;14.92;55.94;95997.19;5087080;28;20040;-79
2022/07/14 04:13:07;;;;;;;4.88;2.83;;;;;;;14.86;55.71;96001.50;5088339;28;20027;-80
2022/07/14 04:15:32;;;;;;;4.10;2.90;;;;;;;14.92;55.98;96008.84;5088151;28;20024;-80
2022/07/14 04:17:58;;;;;;;6.80;2.80;;;;;;;14.98;55.79;96004.53;5106167;28;20039;-79
2022/07/14 04:20:24;;;;;;;4.25;2.22;;;;;;;15.05;55.39;96001.91;5071684;28;20493;-79
2022/07/14 04:22:49;;;;;;;5.05;3.05;;;;;;;15.06;55.50;96008.97;5087434;28;20020;-79
2022/07/14 04:25:15;;;;;;;4.72;2.88;;;;;;;15.04;55.69;96005.66;5106837;28;20063;-79
2022/07/14 04:27:40;;;;;;;6.05;2.60;;;;;;;15.19;55.76;96010.97;5087003;28;20039;-80
2022/07/14 04:30:10;;;;;;;5.18;2.80;;;;;;;15.39;55.34;96003.09;5071661;28;20486;-80
2022/07/14 04:32:35;;;;;;;7.47;2.55;;;;;;;15.54;55.14;96002.19;5070722;28;20656;-80
2022/07/14 04:35:01;;;;;;;5.85;2.20;;;;;;;15.64;54.80;96008.06;5070825;28;20475;-80
2022/07/14 04:37:27;;;;;;;6.63;2.55;;;;;;;15.71;54.72;96016.25;5087796;28;20032;-80
2022/07/14 04:39:54;;;;;;;6.60;2.50;;;;;;;15.87;54.55;96015.13;5087553;28;20035;-80
2022/07/14 04:42:20;;;;;;;3.50;2.40;;;;;;;15.96;53.87;96015.00;5089040;28;20024;-80
2022/07/14 04:44:46;;;;;;;4.97;2.30;;;;;;;15.99;53.86;96018.16;5105306;28;20112;-80
2022/07/14 04:47:12;;;;;;;3.38;2.50;;;;;;;16.07;54.08;96019.88;5088517;28;20473;-80
2022/07/14 04:52:21;;;;;;;8.65;3.63;;;;;;;16.42;53.02;96017.19;5106014;28;20418;-79
2022/07/14 04:54:47;;;;;;;6.55;3.15;;;;;;;16.50;53.42;96018.91;5053821;28;20024;-79
2022/07/14 04:57:12;;;;;;;8.38;3.63;;;;;;;16.66;53.50;96025.84;5087275;28;20023;-80
2022/07/14 04:59:37;;;;;;;4.38;2.80;;;;;;;16.77;53.79;96018.16;5071028;28;20039;-79
2022/07/14 05:02:04;;;;;;;6.88;3.03;;;;;;;16.87;52.80;96026.78;5086933;28;20084;-80
2022/07/14 05:04:30;;;;;;;4.97;3.22;;;;;;;16.99;53.06;96032.41;5095561;28;20038;-80
2022/07/14 05:06:55;;;;;;;5.22;3.20;;;;;;;16.97;52.95;96033.69;5097304;28;20043;-80
2022/07/14 05:09:21;;;;;;;5.28;3.22;;;;;;;16.87;52.91;96031.34;5107011;28;20052;-78
2022/07/14 05:11:46;;;;;;;4.72;3.00;;;;;;;17.01;52.60;96024.09;5105640;28;20481;-80
2022/07/14 05:14:12;;;;;;;3.55;2.60;;;;;;;17.23;52.24;96024.00;5105926;28;20534;-80
2022/07/14 05:16:38;;;;;;;5.90;2.90;;;;;;;17.45;52.65;96013.81;5087246;28;20031;-82
2022/07/14 05:19:04;;;;;;;6.82;2.70;;;;;;;17.63;51.79;96010.50;5087011;28;20028;-80
2022/07/14 05:21:30;;;;;;;6.10;2.92;;;;;;;17.68;51.55;96015.31;5088290;28;20050;-81
2022/07/14 05:23:56;;;;;;;6.03;3.25;;;;;;;17.61;50.27;96011.72;5104871;28;20410;-81
2022/07/14 05:26:22;;;;;;;5.68;2.63;;;;;;;17.63;50.95;96018.63;5087981;28;20028;-81
2022/07/14 05:28:47;;;;;;;6.32;2.70;;;;;;;17.75;50.93;96018.03;5087158;28;20023;-80
2022/07/14 05:31:13;;;;;;;4.40;2.92;;;;;;;17.83;51.08;96023.22;5087348;28;20023;-80
2022/07/14 05:33:38;;;;;;;4.28;2.22;;;;;;;17.82;50.20;96013.41;5105238;28;20024;-80
2022/07/14 05:36:05;;;;;;;3.40;2.08;;;;;;;17.67;50.06;96016.31;5086735;28;20063;-81
2022/07/14 05:38:31;;;;;;;4.97;2.20;;;;;;;17.67;50.81;96013.63;5070548;28;20046;-80
2022/07/14 05:40:58;;;;;;;4.43;2.30;;;;;;;17.71;50.46;96019.47;5086864;28;20019;-81
2022/07/14 05:43:24;;;;;;;6.97;3.05;;;;;;;17.84;50.48;96013.22;5071263;28;20031;-81
2022/07/14 05:45:49;;;;;;;6.78;2.72;;;;;;;18.02;51.37;96024.25;5086821;28;20413;-81
2022/07/14 05:48:15;;;;;;;7.22;2.80;;;;;;;18.13;50.64;96014.69;5071001;28;20039;-80
2022/07/14 05:50:40;;;;;;;6.35;2.30;;;;;;;18.23;49.72;96016.94;5105111;28;20034;-81
2022/07/14 05:53:06;;;;;;;5.38;2.17;;;;;;;18.37;49.53;96008.78;5105232;28;20020;-80
2022/07/14 05:55:31;;;;;;;8.60;2.60;;;;;;;18.50;49.31;96013.34;5105430;28;20028;-80
2022/07/14 05:57:56;;;;;;;3.67;2.10;;;;;;;18.70;48.70;96007.03;5105040;28;20023;-81
2022/07/14 06:00:22;;;;;;;4.88;2.00;;;;;;;18.93;47.88;96002.94;5086984;28;20088;-80
2022/07/14 06:02:47;;;;;;;9.20;2.00;;;;;;;18.92;48.43;96004.00;5104892;28;20104;-82
2022/07/14 06:05:13;;;;;;;8.45;2.30;;;;;;;18.89;48.45;95999.84;5105246;28;20489;-80
2022/07/14 06:07:39;;;;;;;6.13;2.20;;;;;;;19.02;48.89;95998.94;5069689;28;20020;-80
2022/07/14 06:10:05;;;;;;;6.70;2.53;;;;;;;19.16;48.76;96002.47;5087246;28;20036;-80
2022/07/14 06:12:32;;;;;;;6.15;2.17;;;;;;;19.21;48.73;95997.22;5069625;28;20124;-80
2022/07/14 06:14:57;;;;;;;10.20;2.47;;;;;;;19.37;48.25;95997.72;5105440;28;20042;-80
2022/07/14 06:17:22;;;;;;;5.43;2.60;;;;;;;19.42;47.55;95995.19;5069729;28;20023;-81
2022/07/14 06:19:48;;;;;;;5.70;2.42;;;;;;;19.51;48.92;95991.16;5105166;28;20492;-80
2022/07/14 06:22:13;;;;;;;5.72;2.05;;;;;;;19.70;49.19;95993.94;5105150;28;20489;-80
2022/07/14 06:24:39;;;;;;;4.50;2.60;;;;;;;19.77;47.74;95997.44;5068952;28;20039;-80
2022/07/14 06:27:05;;;;;;;11.02;2.50;;;;;;;19.81;47.93;96003.28;5070483;28;20494;-80
2022/07/14 06:29:30;;;;;;;9.10;2.38;;;;;;;19.97;48.38;95999.19;5106452;28;20036;-81
2022/07/14 06:31:56;;;;;;;4.68;1.90;;;;;;;19.99;47.35;95991.59;5090695;28;20030;-81
2022/07/14 06:34:22;;;;;;;5.38;1.98;;;;;;;20.15;46.98;95994.84;5089555;28;20038;-80
2022/07/14 06:36:47;;;;;;;15.85;3.60;;;;;;;20.24;46.35;95992.66;5089888;28;20139;-80
2022/07/14 06:39:14;;;;;;;8.35;2.15;;;;;;;20.17;45.77;95991.91;5073075;28;20041;-81
2022/07/14 06:41:40;;;;;;;5.40;2.00;;;;;;;20.20;45.53;95991.47;5089379;28;20103;-81
2022/07/14 06:44:05;;;;;;;5.70;2.00;;;;;;;20.53;45.79;95982.09;5108693;28;20024;-80
2022/07/14 06:46:32;;;;;;;5.43;1.90;;;;;;;20.55;44.92;95981.84;5107283;28;20047;-80
2022/07/14 06:48:58;;;;;;;8.75;2.00;;;;;;;20.67;45.12;95990.13;5108591;28;20024;-80
2022/07/14 06:51:24;;;;;;;5.25;1.77;;;;;;;20.79;44.05;95985.56;5089157;28;20042;-81
2022/07/14 06:53:49;;;;;;;6.47;1.63;;;;;;;20.94;43.88;95987.91;5089902;28;20536;-81
2022/07/14 06:56:15;;;;;;;5.63;1.75;;;;;;;21.07;43.68;95984.16;5108036;28;20024;-81
2022/07/14 06:58:40;;;;;;;9.60;2.67;;;;;;;21.12;44.81;95980.75;5072368;28;20023;-80
2022/07/14 07:01:06;;;;;;;8.52;2.35;;;;;;;21.30;43.86;95970.84;5089618;28;20034;-81
2022/07/14 07:03:31;;;;;;;11.05;1.98;;;;;;;21.41;42.87;95971.97;5089097;28;20581;-81
2022/07/14 07:08:41;;;;;;;9.98;1.90;;;;;;;21.26;42.55;95969.66;5107811;28;20080;-81
2022/07/14 07:11:06;;;;;;;7.22;2.20;;;;;;;20.82;43.49;95973.34;5107735;28;20043;-80
2022/07/14 07:13:31;;;;;;;7.78;1.90;;;;;;;20.97;44.37;95973.00;5089279;28;20036;-81
2022/07/14 07:15:57;;;;;;;6.15;1.92;;;;;;;20.99;43.83;95968.97;5072983;28;20023;-80
2022/07/14 07:18:22;;;;;;;4.53;2.00;;;;;;;21.20;43.41;95965.97;5107911;28;20036;-80
2022/07/14 07:20:48;;;;;;;7.38;2.40;;;;;;;21.09;43.59;95962.13;5088903;28;20027;-81
2022/07/14 07:23:13;;;;;;;5.88;2.10;;;;;;;21.17;43.26;95960.97;5090035;28;20521;-81
2022/07/14 07:25:39;;;;;;;5.50;1.77;;;;;;;21.15;43.84;95960.38;5071548;28;20486;-81
2022/07/14 07:28:04;;;;;;;3.35;1.90;;;;;;;21.20;43.31;95965.97;5089742;28;20023;-81
2022/07/14 07:30:30;;;;;;;9.73;1.70;;;;;;;21.57;43.19;95962.28;5089067;28;20024;-81
2022/07/14 07:32:55;;;;;;;3.72;1.60;;;;;;;21.27;43.69;95955.78;5072007;28;20414;-81
2022/07/14 07:35:21;;;;;;;4.35;1.40;;;;;;;21.33;43.75;95960.31;5054931;28;20107;-81
2022/07/14 07:37:46;;;;;;;7.32;1.83;;;;;;;21.64;44.48;95954.81;5054871;28;20126;-80
2022/07/14 07:40:12;;;;;;;3.42;1.70;;;;;;;21.79;43.37;95957.13;5107083;28;20088;-81
2022/07/14 07:42:37;;;;;;;4.10;1.77;;;;;;;22.04;42.50;95950.59;5106952;28;20016;-81
2022/07/14 07:45:03;;;;;;;3.40;1.83;;;;;;;22.03;43.11;95948.09;5107514;28;20031;-81
2022/07/14 07:47:28;;;;;;;2.95;1.50;;;;;;;21.71;42.86;95943.78;5071725;28;20490;-81
2022/07/14 07:49:54;;;;;;;2.85;1.60;;;;;;;22.00;42.29;95941.22;5107475;28;20024;-81
2022/07/14 07:52:20;;;;;;;4.88;1.80;;;;;;;22.24;42.37;95941.19;5088735;28;20028;-81
2022/07/14 07:54:45;;;;;;;5.72;1.67;;;;;;;22.52;41.69;95936.88;5088067;28;20068;-81
2022/07/14 07:57:11;;;;;;;2.92;1.60;;;;;;;22.59;41.98;95940.34;5106910;28;20031;-81
2022/07/14 07:59:37;;;;;;;6.50;1.38;;;;;;;21.98;41.91;95922.34;5088079;28;20028;-80
2022/07/14 08:02:03;;;;;;;4.15;1.80;;;;;;;22.25;40.79;95917.47;5107034;28;20020;-81
2022/07/14 08:04:28;;;;;;;7.13;1.33;;;;;;;22.09;40.06;95909.75;5071039;28;20039;-83
2022/07/14 08:06:54;;;;;;;4.10;1.20;;;;;;;22.28;39.64;95917.78;5106992;28;20019;-82
2022/07/14 08:09:19;;;;;;;2.22;1.00;;;;;;;22.41;38.01;95918.63;5088182;28;20143;-81
2022/07/14 08:11:45;;;;;;;3.58;1.20;;;;;;;22.71;39.09;95912.94;5084855;28;20047;-82
2022/07/14 08:16:58;;;;;;;2.97;1.17;;;;;;;22.62;36.06;95902.66;5070687;28;20038;-82
2022/07/14 08:19:23;;;;;;;2.28;1.17;;;;;;;22.88;36.73;95909.44;5068833;28;20517;-81
2022/07/14 08:21:48;;;;;;;2.60;1.30;;;;;;;22.93;36.90;95904.09;5084056;28;20020;-81
2022/07/14 08:24:14;;;;;;;3.40;1.50;;;;;;;22.62;36.88;95913.59;5068050;28;20032;-82
2022/07/14 08:26:40;;;;;;;2.35;0.90;;;;;;;22.99;35.92;95907.72;5085713;28;20579;-81
2022/07/14 08:29:08;;;;;;;2.40;1.20;;;;;;;23.26;35.51;95906.31;5084185;28;20020;-81
2022/07/14 08:31:33;;;;;;;1.98;1.00;;;;;;;23.48;35.39;95903.69;5085774;28;20405;-81
2022/07/14 08:33:59;;;;;;;5.72;1.27;;;;;;;23.62;35.88;95903.38;5083738;28;20466;-81
2022/07/14 08:36:24;;;;;;;4.20;0.98;;;;;;;23.91;38.10;95906.81;5086028;28;20491;-81
2022/07/14 08:38:50;;;;;;;3.25;1.20;;;;;;;24.05;36.96;95901.81;5067797;28;20028;-82
2022/07/14 08:41:15;;;;;;;4.22;1.50;;;;;;;24.10;35.99;95892.03;5072045;28;20032;-81
2022/07/14 08:43:41;;;;;;;4.47;1.30;;;;;;;23.83;36.16;95897.13;5078441;28;20035;-82
2022/07/14 08:46:06;;;;;;;3.30;1.05;;;;;;;23.91;36.24;95897.78;5088615;28;20039;-82
2022/07/14 08:48:32;;;;;;;7.10;1.42;;;;;;;24.08;35.96;95892.28;5084868;28;20109;-82
2022/07/14 08:50:57;;;;;;;3.72;1.52;;;;;;;24.32;34.08;95890.19;5083686;28;20024;-82
2022/07/14 08:53:23;;;;;;;6.57;1.65;;;;;;;24.46;34.19;95891.72;5067643;28;20016;-81
2022/07/14 08:55:48;;;;;;;1.75;1.08;;;;;;;24.54;33.48;95881.13;5067670;28;20043;-81
2022/07/14 08:58:13;;;;;;;2.67;0.90;;;;;;;24.59;34.46;95883.09;5067727;28;20024;-81
2022/07/14 09:00:39;;;;;;;1.70;0.80;;;;;;;24.63;34.28;95877.94;5085281;28;20017;-81
2022/07/14 09:03:05;;;;;;;4.03;1.10;;;;;;;24.55;33.66;95882.75;5051242;28;20028;-81
2022/07/14 09:05:30;;;;;;;3.28;0.80;;;;;;;24.56;34.39;95875.38;5084819;28;20501;-81
2022/07/14 09:07:56;;;;;;;2.50;0.70;;;;;;;24.66;34.93;95869.19;5084487;28;20634;-82
2022/07/14 09:10:24;;;;;;;4.40;0.90;;;;;;;24.80;34.41;95864.13;5066657;28;20047;-81
2022/07/14 09:12:49;;;;;;;3.92;0.90;;;;;;;24.83;33.94;95863.59;5084113;28;20039;-81
2022/07/14 09:18:01;;;;;;;3.70;1.15;;;;;;;24.23;33.26;95864.28;5084611;28;20031;-81
2022/07/14 09:20:31;;;;;;;2.25;1.05;;;;;;;24.51;34.04;95865.19;5050773;28;20123;-81
2022/07/14 09:22:58;;;;;;;7.68;1.30;;;;;;;24.62;34.47;95854.34;5066908;28;20082;-80
2022/07/14 09:25:24;;;;;;;3.33;1.08;;;;;;;24.77;32.96;95851.75;5084843;28;20401;-82
2022/07/14 09:27:50;;;;;;;4.05;1.10;;;;;;;24.85;32.98;95844.13;5066913;28;20129;-82
2022/07/14 09:30:15;;;;;;;3.10;1.20;;;;;;;24.99;35.41;95848.16;5083558;28;20050;-81
2022/07/14 09:33:00;;;;;;;3.50;1.20;;;;;;;25.00;35.19;95844.34;5083921;28;20035;-81
2022/07/14 09:35:33;;;;;;;1.63;1.00;;;;;;;25.14;34.72;95841.16;5067000;28;20030;-81
2022/07/14 09:37:58;;;;;;;;;;;;;;;25.22;33.65;95843.44;5085998;28;20013;-81
2022/07/14 09:40:28;;;;;;;2.72;1.05;;;;;;;25.24;33.33;95838.50;5083220;28;19912;-82
2022/07/14 09:42:58;;;;;;;4.88;1.13;;;;;;;25.06;32.53;95840.56;5084681;28;20032;-82
2022/07/14 09:45:29;;;;;;;3.08;0.85;;;;;;;24.95;32.34;95830.56;5083130;28;20020;-82
2022/07/14 09:48:11;;;;;;;4.82;1.15;;;;;;;25.21;32.41;95828.06;5083503;28;20032;-81
2022/07/14 09:50:54;;;;;;;2.50;0.90;;;;;;;25.28;31.95;95823.16;5067804;28;20020;-82
2022/07/14 09:53:32;;;;;;;1.55;0.90;;;;;;;25.31;32.28;95827.31;5083269;28;20406;-82
2022/07/14 09:56:04;;;;;;;2.35;1.15;;;;;;;25.35;33.50;95824.88;5083428;28;20554;-83
2022/07/14 09:58:51;;;;;;;2.83;0.93;;;;;;;25.38;32.25;95827.06;5084420;28;20085;-81
2022/07/14 10:01:19;;;;;;;3.30;1.10;;;;;;;25.31;32.79;95827.31;5067085;28;20530;-82
2022/07/14 10:03:46;;;;;;;4.72;1.08;;;;;;;25.33;32.27;95824.31;5070162;28;20099;-81
2022/07/14 10:06:11;;;;;;;2.05;0.90;;;;;;;25.30;33.03;95822.91;5086524;28;20032;-82
2022/07/14 10:08:40;;;;;;;1.30;0.80;;;;;;;25.36;34.04;95821.03;5088559;28;20039;-83
2022/07/14 10:11:05;;;;;;;6.80;0.93;;;;;;;25.40;31.73;95814.75;5087054;28;20055;-81
2022/07/14 10:13:31;;;;;;;2.55;0.80;;;;;;;25.48;31.48;95804.38;5086817;28;20028;-82
2022/07/14 10:15:57;;;;;;;4.18;1.33;;;;;;;25.57;32.00;95810.22;5087117;28;20085;-81
2022/07/14 10:18:23;;;;;;;3.17;1.05;;;;;;;25.69;32.49;95816.34;5069669;28;20076;-81
2022/07/14 10:20:50;;;;;;;3.00;1.10;;;;;;;25.34;32.44;95801.25;5088870;28;20087;-82
2022/07/14 10:23:16;;;;;;;3.97;1.10;;;;;;;25.51;31.69;95804.69;5086383;28;20028;-81
2022/07/14 10:25:41;;;;;;;5.15;1.02;;;;;;;25.50;32.24;95797.53;5070430;28;20507;-81
2022/07/14 10:28:07;;;;;;;2.95;1.00;;;;;;;25.47;31.42;95798.03;5086765;28;20020;-81
2022/07/14 10:31:19;;;;;;;1.80;0.85;;;;;;;25.47;31.35;95789.81;5086605;28;20111;-80
2022/07/14 10:34:22;;;;;;;4.20;0.98;;;;;;;25.50;31.69;95780.22;5048833;28;20042;-82
2022/07/14 10:36:52;;;;;;;3.35;1.10;;;;;;;25.57;31.73;95786.31;5086384;28;20020;-81
2022/07/14 10:39:38;;;;;;;3.72;1.10;;;;;;;25.58;31.38;95774.25;5070152;28;20038;-81
2022/07/14 10:42:09;;;;;;;2.33;1.02;;;;;;;25.61;31.44;95792.94;5053325;28;20581;-81
2022/07/14 10:44:35;;;;;;;2.17;1.20;;;;;;;25.57;31.10;95774.50;5087293;28;20032;-81
2022/07/14 10:47:08;;;;;;;2.55;1.10;;;;;;;25.67;34.07;95771.84;5088497;28;20055;-82
2022/07/14 10:50:06;;;;;;;3.88;1.20;;;;;;;25.70;32.16;95768.56;5085823;28;20579;-81
2022/07/14 10:52:33;;;;;;;1.50;0.88;;;;;;;25.68;30.87;95768.03;5085962;28;20043;-81
2022/07/14 10:55:21;;;;;;;2.47;1.05;;;;;;;25.57;32.67;95766.28;5069819;28;20024;-81
2022/07/14 10:57:59;;;;;;;3.35;1.85;;;;;;;25.72;32.65;95771.88;5087035;28;20024;-81
2022/07/14 11:00:55;;;;;;;4.10;1.00;;;;;;;25.79;30.16;95763.41;5088051;28;20490;-82
2022/07/14 11:03:22;;;;;;;1.90;1.20;;;;;;;25.77;30.75;95762.84;5087239;28;20032;-82
2022/07/14 11:08:31;;;;;;;8.32;1.35;;;;;;;25.82;32.81;95751.06;5087986;28;20024;-82
2022/07/14 11:11:00;;;;;;;5.25;1.10;;;;;;;25.92;30.70;95756.59;5085277;28;20047;-82
2022/07/14 11:13:26;;;;;;;2.22;1.05;;;;;;;25.90;30.55;95745.03;5069667;28;20056;-81
2022/07/14 11:15:55;;;;;;;2.33;1.10;;;;;;;26.05;33.73;95747.84;5084880;28;20525;-81
2022/07/14 11:18:21;;;;;;;1.80;1.00;;;;;;;26.26;32.15;95747.91;5069172;28;20028;-81
2022/07/14 11:21:06;;;;;;;2.63;1.10;;;;;;;26.31;32.68;95747.09;5086787;28;20035;-81
2022/07/14 11:23:36;;;;;;;5.93;1.70;;;;;;;26.42;33.70;95746.06;5085647;28;20093;-82
2022/07/14 11:26:07;;;;;;;4.85;1.55;;;;;;;26.41;31.43;95746.34;5085923;28;20113;-82
2022/07/14 11:28:43;;;;;;;2.97;1.20;;;;;;;26.35;29.85;95736.44;5069049;28;20090;-83
2022/07/14 11:31:20;;;;;;;6.00;1.30;;;;;;;26.35;29.81;95739.19;5087468;28;20030;-82
2022/07/14 11:36:34;;;;;;;5.85;1.45;;;;;;;26.51;31.05;95743.63;5085742;28;20039;-81
2022/07/14 11:39:14;;;;;;;2.95;1.38;;;;;;;26.57;30.87;95740.88;5068561;28;20021;-81
2022/07/14 11:42:13;;;;;;;3.58;1.45;;;;;;;26.61;30.11;95742.00;5086156;28;20460;-81
2022/07/14 11:44:38;;;;;;;2.05;1.00;;;;;;;26.70;30.63;95734.84;5030194;28;20035;-81
2022/07/14 11:47:15;;;;;;;2.03;0.82;;;;;;;26.79;30.36;95727.69;5084534;28;20358;-82
2022/07/14 11:49:40;;;;;;;3.38;0.90;;;;;;;26.82;29.81;95731.00;5084761;28;20052;-82
2022/07/14 11:52:06;;;;;;;4.10;1.15;;;;;;;26.79;28.99;95733.19;5085286;28;20063;-81
2022/07/14 11:54:31;;;;;;;1.60;0.80;;;;;;;26.82;28.34;95720.84;5086018;28;20020;-82